CAL76W NZWN-YSSY
Flight info
| Callsign | CAL76W |
|---|---|
| Flight time | 2h 19m |
| Altitude | 38000 |
| Route | UPLUD1P TANEN M636 PLUGA DCT RIKNI DCT MARLN MARLN5 |
| Aircraft | B77L/H-SDE1E2E3FGHIJ2J3J4J5M1RWXY/LB1D1 |
Departure
| Time | 2026-04-25 06:58 |
|---|---|
| Airport | Wellington International Airport (NZWN) |
Arrival
| Time | 2026-04-25 09:18 |
|---|---|
| Airport | Sydney Kingsford Smith International Airport (YSSY) |
| Time | Latitude | Longitude | Altitude | Speed | Heading |
|---|---|---|---|---|---|
| 2026-04-25 05:58 | -41.33290 | 174.81109 | 27 ft | 0 kts | 146° |
| 2026-04-25 06:12 | -41.33287 | 174.81107 | 27 ft | 3 kts | 146° |
| 2026-04-25 06:12 | -41.33270 | 174.81092 | 25 ft | 3 kts | 146° |
| 2026-04-25 06:13 | -41.33253 | 174.81078 | 32 ft | 3 kts | 172° |
| 2026-04-25 06:13 | -41.33234 | 174.81081 | 31 ft | 3 kts | 218° |
| 2026-04-25 06:13 | -41.33225 | 174.81093 | 31 ft | 0 kts | 237° |
| 2026-04-25 06:16 | -41.33227 | 174.81090 | 31 ft | 4 kts | 237° |
| 2026-04-25 06:17 | -41.33243 | 174.81041 | 31 ft | 8 kts | 260° |
| 2026-04-25 06:17 | -41.33242 | 174.80987 | 29 ft | 2 kts | 274° |
| 2026-04-25 06:17 | -41.33240 | 174.80948 | 26 ft | 8 kts | 275° |
| 2026-04-25 06:17 | -41.33238 | 174.80924 | 25 ft | 1 kts | 275° |
| 2026-04-25 06:18 | -41.33237 | 174.80895 | 25 ft | 1 kts | 272° |
| 2026-04-25 06:18 | -41.33236 | 174.80875 | 29 ft | 0 kts | 273° |
| 2026-04-25 06:24 | -41.33236 | 174.80872 | 24 ft | 5 kts | 273° |
| 2026-04-25 06:24 | -41.33241 | 174.80816 | 26 ft | 5 kts | 245° |
| 2026-04-25 06:25 | -41.33253 | 174.80797 | 25 ft | 0 kts | 223° |
| 2026-04-25 06:30 | -41.33255 | 174.80796 | 24 ft | 3 kts | 215° |
| 2026-04-25 06:30 | -41.33269 | 174.80788 | 26 ft | 0 kts | 199° |
| 2026-04-25 06:34 | -41.33291 | 174.80781 | 25 ft | 15 kts | 189° |
| 2026-04-25 06:34 | -41.33321 | 174.80777 | 23 ft | 0 kts | 185° |
| 2026-04-25 06:35 | -41.33322 | 174.80777 | 23 ft | 1 kts | 184° |
| 2026-04-25 06:35 | -41.33323 | 174.80777 | 24 ft | 0 kts | 183° |
| 2026-04-25 06:36 | -41.33379 | 174.80774 | 22 ft | 0 kts | 183° |
| 2026-04-25 06:37 | -41.33381 | 174.80773 | 23 ft | 0 kts | 183° |
| 2026-04-25 06:37 | -41.33385 | 174.80773 | 25 ft | 0 kts | 183° |
| 2026-04-25 06:43 | -41.33389 | 174.80773 | 22 ft | 6 kts | 183° |
| 2026-04-25 06:43 | -41.33412 | 174.80771 | 25 ft | 0 kts | 183° |
| 2026-04-25 06:44 | -41.33420 | 174.80771 | 24 ft | 0 kts | 182° |
| 2026-04-25 06:48 | -41.33448 | 174.80769 | 21 ft | 4 kts | 182° |
| 2026-04-25 06:49 | -41.33459 | 174.80769 | 21 ft | 0 kts | 182° |
| 2026-04-25 06:51 | -41.33502 | 174.80764 | 21 ft | 0 kts | 189° |
| 2026-04-25 06:51 | -41.33503 | 174.80764 | 21 ft | 2 kts | 189° |
| 2026-04-25 06:51 | -41.33515 | 174.80761 | 21 ft | 0 kts | 192° |
| 2026-04-25 06:56 | -41.33572 | 174.80665 | 17 ft | 9 kts | 275° |
| 2026-04-25 06:56 | -41.33518 | 174.80637 | 16 ft | 10 kts | 16° |
| 2026-04-25 06:56 | -41.33491 | 174.80638 | 17 ft | 0 kts | 356° |
| 2026-04-25 06:57 | -41.33475 | 174.80637 | 20 ft | 12 kts | 358° |
| 2026-04-25 06:57 | -41.33190 | 174.80652 | 22 ft | 86 kts | 4° |
| 2026-04-25 06:58 | -41.32252 | 174.80719 | 31 ft | 180 kts | 3° |
| 2026-04-25 06:58 | -41.30872 | 174.80827 | 626 ft | 203 kts | 4° |
| 2026-04-25 06:58 | -41.29437 | 174.80948 | 1707 ft | 214 kts | 2° |
| 2026-04-25 06:58 | -41.28445 | 174.81019 | 2422 ft | 219 kts | 1° |
| 2026-04-25 06:59 | -41.26857 | 174.81007 | 2916 ft | 237 kts | 349° |
| 2026-04-25 06:59 | -41.25272 | 174.80228 | 3442 ft | 247 kts | 332° |
| 2026-04-25 06:59 | -41.23621 | 174.79445 | 4145 ft | 259 kts | 343° |
| 2026-04-25 06:59 | -41.21843 | 174.78884 | 4879 ft | 261 kts | 346° |
| 2026-04-25 07:00 | -41.20067 | 174.78345 | 5838 ft | 268 kts | 345° |
| 2026-04-25 07:00 | -41.17602 | 174.77537 | 6951 ft | 275 kts | 344° |
| 2026-04-25 07:00 | -41.16367 | 174.77120 | 7488 ft | 276 kts | 345° |
| 2026-04-25 07:00 | -41.14457 | 174.77016 | 8119 ft | 284 kts | 14° |
| 2026-04-25 07:01 | -41.12715 | 174.78240 | 8897 ft | 285 kts | 45° |
| 2026-04-25 07:01 | -41.11549 | 174.80336 | 9667 ft | 282 kts | 58° |
| 2026-04-25 07:01 | -41.10125 | 174.82192 | 10215 ft | 296 kts | 30° |
| 2026-04-25 07:01 | -41.08188 | 174.82959 | 10948 ft | 297 kts | 2° |
| 2026-04-25 07:02 | -41.06171 | 174.82518 | 11731 ft | 295 kts | 335° |
| 2026-04-25 07:02 | -41.04487 | 174.80968 | 12292 ft | 302 kts | 308° |
| 2026-04-25 07:02 | -41.03435 | 174.78536 | 12791 ft | 308 kts | 286° |
| 2026-04-25 07:02 | -41.02919 | 174.75752 | 13474 ft | 314 kts | 277° |
| 2026-04-25 07:03 | -41.02591 | 174.72847 | 13830 ft | 335 kts | 275° |
| 2026-04-25 07:03 | -41.02296 | 174.69654 | 14036 ft | 361 kts | 275° |
| 2026-04-25 07:03 | -41.01992 | 174.66259 | 14384 ft | 379 kts | 275° |
| 2026-04-25 07:03 | -41.01665 | 174.62739 | 15027 ft | 388 kts | 276° |
| 2026-04-25 07:04 | -41.01317 | 174.59161 | 15789 ft | 394 kts | 276° |
| 2026-04-25 07:04 | -41.00951 | 174.55551 | 16627 ft | 397 kts | 276° |
| 2026-04-25 07:04 | -41.00574 | 174.51940 | 17443 ft | 401 kts | 276° |
| 2026-04-25 07:04 | -41.00182 | 174.48246 | 18232 ft | 406 kts | 276° |
| 2026-04-25 07:05 | -40.99780 | 174.44509 | 18918 ft | 412 kts | 277° |
| 2026-04-25 07:05 | -40.99374 | 174.40757 | 19518 ft | 418 kts | 277° |
| 2026-04-25 07:05 | -40.98956 | 174.36930 | 20194 ft | 422 kts | 277° |
| 2026-04-25 07:05 | -40.98529 | 174.33043 | 20925 ft | 424 kts | 277° |
| 2026-04-25 07:06 | -40.98102 | 174.29153 | 21619 ft | 428 kts | 277° |
| 2026-04-25 07:06 | -40.97674 | 174.25274 | 22280 ft | 432 kts | 277° |
| 2026-04-25 07:06 | -40.97235 | 174.21310 | 22941 ft | 436 kts | 277° |
| 2026-04-25 07:06 | -40.96792 | 174.17310 | 23582 ft | 440 kts | 277° |
| 2026-04-25 07:07 | -40.96343 | 174.13277 | 24163 ft | 444 kts | 277° |
| 2026-04-25 07:07 | -40.95895 | 174.09254 | 24695 ft | 448 kts | 277° |
| 2026-04-25 07:07 | -40.95433 | 174.05134 | 25219 ft | 453 kts | 277° |
| 2026-04-25 07:07 | -40.94972 | 174.01026 | 25257 ft | 450 kts | 277° |
| 2026-04-25 07:08 | -40.94509 | 173.96920 | 25273 ft | 451 kts | 277° |
| 2026-04-25 07:08 | -40.94047 | 173.92838 | 25367 ft | 455 kts | 277° |
| 2026-04-25 07:08 | -40.93575 | 173.88678 | 25870 ft | 459 kts | 277° |
| 2026-04-25 07:08 | -40.93100 | 173.84503 | 26470 ft | 460 kts | 277° |
| 2026-04-25 07:09 | -40.92620 | 173.80300 | 27029 ft | 463 kts | 277° |
| 2026-04-25 07:09 | -40.92134 | 173.76060 | 27550 ft | 467 kts | 277° |
| 2026-04-25 07:09 | -40.91644 | 173.71793 | 28022 ft | 471 kts | 276° |
| 2026-04-25 07:09 | -40.91148 | 173.67489 | 28489 ft | 475 kts | 276° |
| 2026-04-25 07:10 | -40.90647 | 173.63157 | 29011 ft | 478 kts | 276° |
| 2026-04-25 07:10 | -40.90141 | 173.58802 | 29626 ft | 477 kts | 276° |
| 2026-04-25 07:10 | -40.89635 | 173.54466 | 30379 ft | 474 kts | 276° |
| 2026-04-25 07:10 | -40.89383 | 173.52322 | 30691 ft | 473 kts | 276° |
| 2026-04-25 07:11 | -40.88894 | 173.48145 | 31236 ft | 472 kts | 276° |
| 2026-04-25 07:11 | -40.88386 | 173.43829 | 31747 ft | 472 kts | 276° |
| 2026-04-25 07:11 | -40.87886 | 173.39587 | 32231 ft | 473 kts | 276° |
| 2026-04-25 07:12 | -40.86859 | 173.30905 | 32272 ft | 476 kts | 276° |
| 2026-04-25 07:12 | -40.85832 | 173.22291 | 32975 ft | 478 kts | 276° |
| 2026-04-25 07:12 | -40.85310 | 173.17932 | 33390 ft | 478 kts | 276° |
| 2026-04-25 07:13 | -40.84786 | 173.13572 | 33713 ft | 481 kts | 276° |
| 2026-04-25 07:13 | -40.84257 | 173.09187 | 33976 ft | 484 kts | 276° |
| 2026-04-25 07:13 | -40.83941 | 173.06567 | 34134 ft | 486 kts | 276° |
| 2026-04-25 07:13 | -40.83404 | 173.02135 | 34384 ft | 488 kts | 276° |
| 2026-04-25 07:14 | -40.82990 | 172.98737 | 34580 ft | 489 kts | 276° |
| 2026-04-25 07:14 | -40.82717 | 172.96495 | 34775 ft | 488 kts | 277° |
| 2026-04-25 07:14 | -40.82175 | 172.92071 | 35150 ft | 485 kts | 277° |
| 2026-04-25 07:14 | -40.81634 | 172.87665 | 35537 ft | 483 kts | 277° |
| 2026-04-25 07:15 | -40.81094 | 172.83273 | 35918 ft | 481 kts | 277° |
| 2026-04-25 07:15 | -40.80563 | 172.78976 | 36301 ft | 479 kts | 277° |
| 2026-04-25 07:15 | -40.80026 | 172.74637 | 36703 ft | 476 kts | 277° |
| 2026-04-25 07:15 | -40.79490 | 172.70323 | 37099 ft | 474 kts | 277° |
| 2026-04-25 07:16 | -40.78955 | 172.66032 | 37519 ft | 471 kts | 277° |
| 2026-04-25 07:16 | -40.78423 | 172.61771 | 37714 ft | 472 kts | 277° |
| 2026-04-25 07:16 | -40.77349 | 172.53197 | 37796 ft | 477 kts | 277° |
| 2026-04-25 07:17 | -40.76804 | 172.48873 | 37952 ft | 478 kts | 277° |
| 2026-04-25 07:17 | -40.76253 | 172.44519 | 38114 ft | 479 kts | 277° |
| 2026-04-25 07:17 | -40.75147 | 172.35814 | 38239 ft | 482 kts | 277° |
| 2026-04-25 07:18 | -40.74039 | 172.27163 | 38242 ft | 474 kts | 277° |
| 2026-04-25 07:18 | -40.72943 | 172.18653 | 38272 ft | 471 kts | 277° |
| 2026-04-25 07:19 | -40.71841 | 172.10135 | 38277 ft | 470 kts | 277° |
| 2026-04-25 07:19 | -40.70741 | 172.01684 | 38254 ft | 469 kts | 277° |
| 2026-04-25 07:20 | -40.69633 | 171.93227 | 38267 ft | 469 kts | 277° |
| 2026-04-25 07:20 | -40.68509 | 171.84707 | 38278 ft | 470 kts | 277° |
| 2026-04-25 07:21 | -40.67392 | 171.76258 | 38281 ft | 470 kts | 277° |
| 2026-04-25 07:21 | -40.66253 | 171.67730 | 38255 ft | 471 kts | 277° |
| 2026-04-25 07:22 | -40.65121 | 171.59275 | 38280 ft | 471 kts | 277° |
| 2026-04-25 07:22 | -40.63972 | 171.50753 | 38291 ft | 472 kts | 278° |
| 2026-04-25 07:23 | -40.62814 | 171.42221 | 38282 ft | 473 kts | 278° |
| 2026-04-25 07:23 | -40.61661 | 171.33755 | 38299 ft | 472 kts | 278° |
| 2026-04-25 07:24 | -40.60487 | 171.25232 | 38283 ft | 473 kts | 278° |
| 2026-04-25 07:24 | -40.59311 | 171.16701 | 38288 ft | 473 kts | 277° |
| 2026-04-25 07:25 | -40.58133 | 171.08222 | 38305 ft | 472 kts | 278° |
| 2026-04-25 07:25 | -40.56945 | 170.99702 | 38302 ft | 472 kts | 278° |
| 2026-04-25 07:26 | -40.55758 | 170.91236 | 38298 ft | 472 kts | 277° |
| 2026-04-25 07:26 | -40.54553 | 170.82711 | 38296 ft | 472 kts | 278° |
| 2026-04-25 07:27 | -40.53358 | 170.74256 | 38293 ft | 472 kts | 278° |
| 2026-04-25 07:27 | -40.52143 | 170.65754 | 38316 ft | 472 kts | 278° |
| 2026-04-25 07:28 | -40.50931 | 170.57308 | 38305 ft | 472 kts | 278° |
| 2026-04-25 07:28 | -40.49457 | 170.48888 | 38324 ft | 470 kts | 282° |
| 2026-04-25 07:29 | -40.47629 | 170.40636 | 38331 ft | 473 kts | 285° |
| 2026-04-25 07:29 | -40.45678 | 170.32337 | 38317 ft | 475 kts | 285° |
| 2026-04-25 07:30 | -40.43781 | 170.23993 | 38317 ft | 476 kts | 284° |
| 2026-04-25 07:30 | -40.41928 | 170.15652 | 38314 ft | 477 kts | 284° |
| 2026-04-25 07:31 | -40.40083 | 170.07340 | 38321 ft | 477 kts | 281° |
| 2026-04-25 07:31 | -40.38352 | 169.98917 | 38331 ft | 477 kts | 287° |
| 2026-04-25 07:32 | -40.36433 | 169.90634 | 38334 ft | 477 kts | 285° |
| 2026-04-25 07:32 | -40.34517 | 169.82285 | 38330 ft | 477 kts | 283° |
| 2026-04-25 07:33 | -40.32696 | 169.73974 | 38332 ft | 476 kts | 284° |
| 2026-04-25 07:33 | -40.30797 | 169.65654 | 38323 ft | 475 kts | 284° |
| 2026-04-25 07:34 | -40.28967 | 169.57339 | 38345 ft | 474 kts | 286° |
| 2026-04-25 07:34 | -40.27066 | 169.49130 | 38341 ft | 473 kts | 283° |
| 2026-04-25 07:35 | -40.25205 | 169.40854 | 38335 ft | 471 kts | 283° |
| 2026-04-25 07:35 | -40.23357 | 169.32664 | 38342 ft | 471 kts | 285° |
| 2026-04-25 07:36 | -40.21456 | 169.24439 | 38351 ft | 470 kts | 285° |
| 2026-04-25 07:36 | -40.19586 | 169.16231 | 38347 ft | 471 kts | 285° |
| 2026-04-25 07:37 | -40.17664 | 169.08093 | 38357 ft | 471 kts | 284° |
| 2026-04-25 07:37 | -40.15774 | 168.99872 | 38352 ft | 471 kts | 285° |
| 2026-04-25 07:38 | -40.13867 | 168.91711 | 38356 ft | 471 kts | 285° |
| 2026-04-25 07:38 | -40.11943 | 168.83517 | 38361 ft | 471 kts | 284° |
| 2026-04-25 07:39 | -40.10078 | 168.75325 | 38361 ft | 472 kts | 284° |
| 2026-04-25 07:39 | -40.08183 | 168.67088 | 38356 ft | 473 kts | 285° |
| 2026-04-25 07:40 | -40.06224 | 168.58915 | 38375 ft | 472 kts | 287° |
| 2026-04-25 07:40 | -40.04254 | 168.50716 | 38359 ft | 472 kts | 285° |
| 2026-04-25 07:41 | -40.02359 | 168.42563 | 38365 ft | 473 kts | 285° |
| 2026-04-25 07:41 | -40.00481 | 168.34627 | 38362 ft | 473 kts | 285° |
| 2026-04-25 07:42 | -39.98537 | 168.26438 | 38367 ft | 472 kts | 285° |
| 2026-04-25 07:42 | -39.96578 | 168.18293 | 38367 ft | 472 kts | 285° |
| 2026-04-25 07:43 | -39.94616 | 168.10110 | 38366 ft | 472 kts | 285° |
| 2026-04-25 07:43 | -39.92637 | 168.01937 | 38379 ft | 471 kts | 285° |
| 2026-04-25 07:44 | -39.90676 | 167.93824 | 38367 ft | 471 kts | 285° |
| 2026-04-25 07:44 | -39.88717 | 167.85721 | 38376 ft | 470 kts | 286° |
| 2026-04-25 07:45 | -39.86745 | 167.77685 | 38363 ft | 470 kts | 285° |
| 2026-04-25 07:45 | -39.84755 | 167.69528 | 38381 ft | 470 kts | 286° |
| 2026-04-25 07:46 | -39.82778 | 167.61455 | 38381 ft | 470 kts | 286° |
| 2026-04-25 07:46 | -39.80773 | 167.53353 | 38378 ft | 469 kts | 286° |
| 2026-04-25 07:47 | -39.78780 | 167.45307 | 38365 ft | 470 kts | 286° |
| 2026-04-25 07:47 | -39.76781 | 167.37202 | 38392 ft | 470 kts | 286° |
| 2026-04-25 07:48 | -39.74760 | 167.29090 | 38389 ft | 472 kts | 286° |
| 2026-04-25 07:48 | -39.72739 | 167.20990 | 38383 ft | 473 kts | 286° |
| 2026-04-25 07:49 | -39.70706 | 167.12845 | 38386 ft | 474 kts | 287° |
| 2026-04-25 07:49 | -39.68660 | 167.04728 | 38390 ft | 474 kts | 287° |
| 2026-04-25 07:50 | -39.66599 | 166.96554 | 38387 ft | 475 kts | 287° |
| 2026-04-25 07:50 | -39.64537 | 166.88414 | 38390 ft | 474 kts | 287° |
| 2026-04-25 07:51 | -39.62482 | 166.80321 | 38389 ft | 474 kts | 287° |
| 2026-04-25 07:51 | -39.60760 | 166.73551 | 38390 ft | 474 kts | 288° |
| 2026-04-25 07:52 | -39.58341 | 166.64100 | 38404 ft | 474 kts | 287° |
| 2026-04-25 07:52 | -39.56277 | 166.56030 | 38398 ft | 474 kts | 286° |
| 2026-04-25 07:53 | -39.54185 | 166.47919 | 38394 ft | 473 kts | 288° |
| 2026-04-25 07:53 | -39.52099 | 166.39819 | 38403 ft | 473 kts | 287° |
| 2026-04-25 07:54 | -39.50357 | 166.33090 | 38388 ft | 473 kts | 287° |
| 2026-04-25 07:54 | -39.48273 | 166.25075 | 38404 ft | 472 kts | 287° |
| 2026-04-25 07:55 | -39.46167 | 166.16979 | 38409 ft | 472 kts | 287° |
| 2026-04-25 07:55 | -39.44069 | 166.08968 | 38394 ft | 472 kts | 287° |
| 2026-04-25 07:56 | -39.41958 | 166.00910 | 38407 ft | 472 kts | 287° |
| 2026-04-25 07:56 | -39.39853 | 165.92898 | 38412 ft | 473 kts | 288° |
| 2026-04-25 07:57 | -39.37723 | 165.84822 | 38397 ft | 474 kts | 288° |
| 2026-04-25 07:57 | -39.35586 | 165.76758 | 38407 ft | 474 kts | 288° |
| 2026-04-25 07:58 | -39.33446 | 165.68726 | 38408 ft | 475 kts | 287° |
| 2026-04-25 07:58 | -39.31300 | 165.60650 | 38414 ft | 476 kts | 288° |
| 2026-04-25 07:59 | -39.30214 | 165.56602 | 38182 ft | 476 kts | 288° |
| 2026-04-25 07:59 | -39.29149 | 165.52610 | 37816 ft | 474 kts | 288° |
| 2026-04-25 07:59 | -39.28068 | 165.48575 | 37287 ft | 474 kts | 288° |
| 2026-04-25 07:59 | -39.26989 | 165.44552 | 36795 ft | 471 kts | 288° |
| 2026-04-25 08:00 | -39.25922 | 165.40572 | 36423 ft | 467 kts | 289° |
| 2026-04-25 08:00 | -39.24851 | 165.36607 | 36440 ft | 469 kts | 288° |
| 2026-04-25 08:00 | -39.22692 | 165.28593 | 36426 ft | 481 kts | 289° |
| 2026-04-25 08:01 | -39.20475 | 165.20419 | 36415 ft | 481 kts | 289° |
| 2026-04-25 08:01 | -39.18262 | 165.12282 | 36412 ft | 479 kts | 288° |
| 2026-04-25 08:02 | -39.16066 | 165.04226 | 36404 ft | 479 kts | 288° |
| 2026-04-25 08:02 | -39.13852 | 164.96115 | 36430 ft | 479 kts | 288° |
| 2026-04-25 08:03 | -39.11638 | 164.88035 | 36430 ft | 480 kts | 289° |
| 2026-04-25 08:03 | -39.09397 | 164.79881 | 36424 ft | 481 kts | 289° |
| 2026-04-25 08:04 | -39.07166 | 164.71797 | 36423 ft | 482 kts | 289° |
| 2026-04-25 08:04 | -39.04923 | 164.63712 | 36423 ft | 481 kts | 289° |
| 2026-04-25 08:05 | -39.02671 | 164.55601 | 36423 ft | 481 kts | 289° |
| 2026-04-25 08:05 | -39.00411 | 164.47482 | 36427 ft | 481 kts | 289° |
| 2026-04-25 08:06 | -38.98149 | 164.39378 | 36429 ft | 480 kts | 289° |
| 2026-04-25 08:06 | -38.95896 | 164.31340 | 36431 ft | 480 kts | 289° |
| 2026-04-25 08:07 | -38.93622 | 164.23255 | 36424 ft | 480 kts | 289° |
| 2026-04-25 08:07 | -38.91362 | 164.15237 | 36433 ft | 480 kts | 289° |
| 2026-04-25 08:08 | -38.89077 | 164.07157 | 36432 ft | 481 kts | 289° |
| 2026-04-25 08:08 | -38.86775 | 163.99045 | 36431 ft | 482 kts | 289° |
| 2026-04-25 08:09 | -38.84482 | 163.90993 | 36439 ft | 482 kts | 289° |
| 2026-04-25 08:09 | -38.82186 | 163.82950 | 36439 ft | 482 kts | 289° |
| 2026-04-25 08:10 | -38.79875 | 163.74880 | 36436 ft | 482 kts | 289° |
| 2026-04-25 08:10 | -38.77547 | 163.66774 | 36443 ft | 482 kts | 289° |
| 2026-04-25 08:11 | -38.75240 | 163.58768 | 36439 ft | 482 kts | 290° |
| 2026-04-25 08:11 | -38.72911 | 163.50707 | 36448 ft | 482 kts | 290° |
| 2026-04-25 08:12 | -38.70589 | 163.42695 | 36444 ft | 482 kts | 290° |
| 2026-04-25 08:12 | -38.68243 | 163.34626 | 36444 ft | 482 kts | 290° |
| 2026-04-25 08:13 | -38.65896 | 163.26574 | 36446 ft | 482 kts | 290° |
| 2026-04-25 08:14 | -38.62382 | 163.14566 | 36450 ft | 482 kts | 290° |
| 2026-04-25 08:14 | -38.60017 | 163.06511 | 36444 ft | 482 kts | 290° |
| 2026-04-25 08:15 | -38.57665 | 162.98541 | 36452 ft | 481 kts | 290° |
| 2026-04-25 08:15 | -38.55207 | 162.90562 | 36448 ft | 481 kts | 291° |
| 2026-04-25 08:16 | -38.52717 | 162.82638 | 36454 ft | 481 kts | 291° |
| 2026-04-25 08:16 | -38.50231 | 162.74718 | 36452 ft | 482 kts | 291° |
| 2026-04-25 08:17 | -38.45441 | 162.59612 | 36457 ft | 484 kts | 295° |
| 2026-04-25 08:17 | -38.38627 | 162.44900 | 36463 ft | 484 kts | 291° |
| 2026-04-25 08:18 | -38.33900 | 162.28816 | 36521 ft | 485 kts | 291° |
| 2026-04-25 08:18 | -38.27277 | 162.07795 | 36551 ft | 486 kts | 291° |
| 2026-04-25 08:19 | -38.17017 | 161.75717 | 36464 ft | 489 kts | 291° |
| 2026-04-25 08:19 | -38.06682 | 161.43743 | 36445 ft | 489 kts | 292° |
| 2026-04-25 08:20 | -37.96310 | 161.12014 | 36466 ft | 489 kts | 292° |
| 2026-04-25 08:20 | -37.85817 | 160.80262 | 36461 ft | 489 kts | 292° |
| 2026-04-25 08:21 | -37.75197 | 160.48479 | 36465 ft | 489 kts | 292° |
| 2026-04-25 08:21 | -37.64518 | 160.16861 | 36472 ft | 489 kts | 292° |
| 2026-04-25 08:22 | -37.53775 | 159.85396 | 36469 ft | 490 kts | 292° |
| 2026-04-25 08:22 | -37.46050 | 159.62973 | 36469 ft | 491 kts | 292° |
| 2026-04-25 08:23 | -37.43337 | 159.55139 | 36466 ft | 491 kts | 292° |
| 2026-04-25 08:23 | -37.40592 | 159.47236 | 36466 ft | 491 kts | 292° |
| 2026-04-25 08:24 | -37.37866 | 159.39403 | 36471 ft | 491 kts | 292° |
| 2026-04-25 08:24 | -37.35111 | 159.31510 | 36466 ft | 491 kts | 292° |
| 2026-04-25 08:25 | -37.32372 | 159.23684 | 36465 ft | 491 kts | 292° |
| 2026-04-25 08:25 | -37.29604 | 159.15796 | 36464 ft | 491 kts | 292° |
| 2026-04-25 08:26 | -37.26853 | 159.07976 | 36469 ft | 492 kts | 292° |
| 2026-04-25 08:26 | -37.24081 | 159.00117 | 36466 ft | 492 kts | 293° |
| 2026-04-25 08:27 | -37.21313 | 158.92288 | 36467 ft | 492 kts | 293° |
| 2026-04-25 08:27 | -37.18528 | 158.84434 | 36461 ft | 492 kts | 293° |
| 2026-04-25 08:28 | -37.15748 | 158.76612 | 36464 ft | 493 kts | 293° |
| 2026-04-25 08:28 | -37.12945 | 158.68747 | 36469 ft | 493 kts | 293° |
| 2026-04-25 08:29 | -37.10148 | 158.60920 | 36467 ft | 494 kts | 293° |
| 2026-04-25 08:29 | -37.07326 | 158.53041 | 36467 ft | 495 kts | 293° |
| 2026-04-25 08:30 | -37.04508 | 158.45197 | 36465 ft | 495 kts | 293° |
| 2026-04-25 08:30 | -37.01688 | 158.37365 | 36467 ft | 495 kts | 293° |
| 2026-04-25 08:31 | -36.98844 | 158.29488 | 36464 ft | 495 kts | 293° |
| 2026-04-25 08:31 | -36.96020 | 158.21685 | 36463 ft | 495 kts | 293° |
| 2026-04-25 08:32 | -36.93172 | 158.13837 | 36458 ft | 495 kts | 293° |
| 2026-04-25 08:32 | -36.90336 | 158.06041 | 36462 ft | 494 kts | 293° |
| 2026-04-25 08:33 | -36.87472 | 157.98189 | 36461 ft | 494 kts | 293° |
| 2026-04-25 08:33 | -36.84626 | 157.90405 | 36456 ft | 494 kts | 293° |
| 2026-04-25 08:34 | -36.81776 | 157.82630 | 36453 ft | 494 kts | 293° |
| 2026-04-25 08:34 | -36.78899 | 157.74803 | 36458 ft | 494 kts | 293° |
| 2026-04-25 08:35 | -36.76036 | 157.67032 | 36458 ft | 495 kts | 294° |
| 2026-04-25 08:35 | -36.73169 | 157.59269 | 36455 ft | 495 kts | 294° |
| 2026-04-25 08:36 | -36.70278 | 157.51464 | 36448 ft | 495 kts | 294° |
| 2026-04-25 08:36 | -36.67386 | 157.43670 | 36457 ft | 495 kts | 294° |
| 2026-04-25 08:37 | -36.64491 | 157.35891 | 36455 ft | 496 kts | 294° |
| 2026-04-25 08:37 | -36.61577 | 157.28082 | 36454 ft | 496 kts | 294° |
| 2026-04-25 08:38 | -36.58672 | 157.20314 | 36452 ft | 497 kts | 294° |
| 2026-04-25 08:38 | -36.55742 | 157.12500 | 36457 ft | 497 kts | 294° |
| 2026-04-25 08:39 | -36.52820 | 157.04727 | 36456 ft | 498 kts | 294° |
| 2026-04-25 08:39 | -36.49891 | 156.96954 | 36450 ft | 498 kts | 294° |
| 2026-04-25 08:40 | -36.42957 | 156.78629 | 36458 ft | 498 kts | 294° |
| 2026-04-25 08:40 | -36.31076 | 156.47475 | 36442 ft | 497 kts | 294° |
| 2026-04-25 08:41 | -36.21171 | 156.21735 | 36436 ft | 497 kts | 294° |
| 2026-04-25 08:41 | -36.07209 | 155.85801 | 36443 ft | 497 kts | 294° |
| 2026-04-25 08:42 | -35.97135 | 155.60123 | 36434 ft | 498 kts | 294° |
| 2026-04-25 08:42 | -35.84971 | 155.29387 | 36425 ft | 498 kts | 294° |
| 2026-04-25 08:43 | -35.72801 | 154.98921 | 36428 ft | 497 kts | 294° |
| 2026-04-25 08:43 | -35.60233 | 154.68507 | 36459 ft | 497 kts | 302° |
| 2026-04-25 08:44 | -35.42395 | 154.42749 | 36372 ft | 500 kts | 309° |
| 2026-04-25 08:44 | -35.34770 | 154.31893 | 36309 ft | 484 kts | 309° |
| 2026-04-25 08:44 | -35.32588 | 154.28794 | 36250 ft | 476 kts | 309° |
| 2026-04-25 08:45 | -35.28331 | 154.22758 | 36115 ft | 462 kts | 309° |
| 2026-04-25 08:45 | -35.24183 | 154.16887 | 35942 ft | 450 kts | 309° |
| 2026-04-25 08:45 | -35.18248 | 154.08502 | 35229 ft | 446 kts | 309° |
| 2026-04-25 08:46 | -35.10072 | 153.96982 | 33862 ft | 448 kts | 309° |
| 2026-04-25 08:46 | -35.01917 | 153.85534 | 32408 ft | 450 kts | 310° |
| 2026-04-25 08:46 | -34.94457 | 153.75094 | 31073 ft | 453 kts | 310° |
| 2026-04-25 08:46 | -34.92382 | 153.72196 | 30674 ft | 453 kts | 310° |
| 2026-04-25 08:47 | -34.90290 | 153.69277 | 30273 ft | 454 kts | 310° |
| 2026-04-25 08:47 | -34.88233 | 153.66408 | 29832 ft | 455 kts | 310° |
| 2026-04-25 08:47 | -34.86145 | 153.63500 | 29474 ft | 454 kts | 310° |
| 2026-04-25 08:47 | -34.84077 | 153.60621 | 29369 ft | 447 kts | 310° |
| 2026-04-25 08:48 | -34.82043 | 153.57793 | 29310 ft | 439 kts | 310° |
| 2026-04-25 08:48 | -34.78099 | 153.52316 | 29176 ft | 425 kts | 310° |
| 2026-04-25 08:48 | -34.76155 | 153.49618 | 29002 ft | 421 kts | 310° |
| 2026-04-25 08:49 | -34.74238 | 153.46960 | 28724 ft | 420 kts | 310° |
| 2026-04-25 08:49 | -34.72306 | 153.44282 | 28429 ft | 420 kts | 310° |
| 2026-04-25 08:49 | -34.70376 | 153.41610 | 28164 ft | 419 kts | 310° |
| 2026-04-25 08:49 | -34.68455 | 153.38951 | 27928 ft | 417 kts | 310° |
| 2026-04-25 08:50 | -34.66569 | 153.36345 | 27707 ft | 415 kts | 311° |
| 2026-04-25 08:50 | -34.64661 | 153.33710 | 27482 ft | 413 kts | 311° |
| 2026-04-25 08:50 | -34.62755 | 153.31079 | 27207 ft | 413 kts | 311° |
| 2026-04-25 08:50 | -34.60856 | 153.28459 | 26963 ft | 412 kts | 311° |
| 2026-04-25 08:51 | -34.58961 | 153.25848 | 26742 ft | 410 kts | 311° |
| 2026-04-25 08:51 | -34.57097 | 153.23281 | 26516 ft | 409 kts | 311° |
| 2026-04-25 08:51 | -34.55218 | 153.20696 | 26306 ft | 407 kts | 311° |
| 2026-04-25 08:51 | -34.53335 | 153.18106 | 26090 ft | 406 kts | 311° |
| 2026-04-25 08:52 | -34.51464 | 153.15534 | 25872 ft | 405 kts | 311° |
| 2026-04-25 08:52 | -34.49622 | 153.13006 | 25666 ft | 403 kts | 311° |
| 2026-04-25 08:52 | -34.47763 | 153.10455 | 25464 ft | 402 kts | 311° |
| 2026-04-25 08:52 | -34.45912 | 153.07917 | 25267 ft | 400 kts | 311° |
| 2026-04-25 08:53 | -34.44086 | 153.05415 | 25070 ft | 399 kts | 311° |
| 2026-04-25 08:53 | -34.42247 | 153.02897 | 24869 ft | 398 kts | 311° |
| 2026-04-25 08:53 | -34.40404 | 153.00375 | 24665 ft | 397 kts | 311° |
| 2026-04-25 08:53 | -34.38598 | 152.97907 | 24473 ft | 396 kts | 312° |
| 2026-04-25 08:54 | -34.36773 | 152.95414 | 24263 ft | 395 kts | 312° |
| 2026-04-25 08:54 | -34.34950 | 152.92924 | 24093 ft | 394 kts | 312° |
| 2026-04-25 08:54 | -34.33129 | 152.90441 | 23892 ft | 392 kts | 312° |
| 2026-04-25 08:54 | -34.31317 | 152.87970 | 23687 ft | 390 kts | 312° |
| 2026-04-25 08:55 | -34.29516 | 152.85517 | 23299 ft | 388 kts | 312° |
| 2026-04-25 08:55 | -34.27751 | 152.83113 | 22904 ft | 385 kts | 312° |
| 2026-04-25 08:55 | -34.25974 | 152.80697 | 22514 ft | 382 kts | 312° |
| 2026-04-25 08:55 | -34.24209 | 152.78296 | 22131 ft | 379 kts | 312° |
| 2026-04-25 08:56 | -34.22480 | 152.75947 | 21751 ft | 376 kts | 312° |
| 2026-04-25 08:56 | -34.20737 | 152.73581 | 21369 ft | 374 kts | 312° |
| 2026-04-25 08:56 | -34.19017 | 152.71246 | 20995 ft | 371 kts | 312° |
| 2026-04-25 08:56 | -34.17297 | 152.68913 | 20629 ft | 368 kts | 312° |
| 2026-04-25 08:57 | -34.15596 | 152.66608 | 20256 ft | 366 kts | 312° |
| 2026-04-25 08:57 | -34.13926 | 152.64345 | 19892 ft | 364 kts | 312° |
| 2026-04-25 08:57 | -34.12242 | 152.62066 | 19536 ft | 361 kts | 312° |
| 2026-04-25 08:57 | -34.10570 | 152.59805 | 19159 ft | 360 kts | 312° |
| 2026-04-25 08:58 | -34.09066 | 152.57410 | 18697 ft | 358 kts | 298° |
| 2026-04-25 08:58 | -34.08111 | 152.54674 | 18245 ft | 355 kts | 285° |
| 2026-04-25 08:58 | -34.07663 | 152.51778 | 17876 ft | 348 kts | 275° |
| 2026-04-25 08:58 | -34.07404 | 152.48855 | 17353 ft | 349 kts | 275° |
| 2026-04-25 08:59 | -34.07157 | 152.45954 | 16991 ft | 345 kts | 274° |
| 2026-04-25 08:59 | -34.06912 | 152.43109 | 16581 ft | 344 kts | 274° |
| 2026-04-25 08:59 | -34.06658 | 152.40228 | 16117 ft | 344 kts | 274° |
| 2026-04-25 08:59 | -34.06399 | 152.37364 | 15767 ft | 342 kts | 275° |
| 2026-04-25 09:00 | -34.06137 | 152.34511 | 15525 ft | 341 kts | 275° |
| 2026-04-25 09:00 | -34.05877 | 152.31721 | 15461 ft | 337 kts | 275° |
| 2026-04-25 09:00 | -34.05614 | 152.28910 | 15412 ft | 336 kts | 275° |
| 2026-04-25 09:00 | -34.05350 | 152.26110 | 15388 ft | 335 kts | 275° |
| 2026-04-25 09:01 | -34.05084 | 152.23305 | 15391 ft | 336 kts | 275° |
| 2026-04-25 09:01 | -34.04820 | 152.20517 | 15378 ft | 328 kts | 275° |
| 2026-04-25 09:01 | -34.04566 | 152.17853 | 15362 ft | 317 kts | 275° |
| 2026-04-25 09:01 | -34.04316 | 152.15233 | 15369 ft | 313 kts | 275° |
| 2026-04-25 09:02 | -34.04069 | 152.12634 | 15364 ft | 310 kts | 275° |
| 2026-04-25 09:02 | -34.03824 | 152.10084 | 15274 ft | 309 kts | 275° |
| 2026-04-25 09:02 | -34.03577 | 152.07511 | 14964 ft | 308 kts | 275° |
| 2026-04-25 09:02 | -34.03325 | 152.04937 | 14549 ft | 308 kts | 275° |
| 2026-04-25 09:03 | -34.03066 | 152.02371 | 14158 ft | 307 kts | 275° |
| 2026-04-25 09:03 | -34.02809 | 151.99856 | 13753 ft | 305 kts | 276° |
| 2026-04-25 09:03 | -34.02552 | 151.97340 | 13412 ft | 300 kts | 276° |
| 2026-04-25 09:03 | -34.02299 | 151.94874 | 13078 ft | 296 kts | 275° |
| 2026-04-25 09:04 | -34.02051 | 151.92428 | 12755 ft | 291 kts | 275° |
| 2026-04-25 09:04 | -34.01805 | 151.90013 | 12360 ft | 289 kts | 276° |
| 2026-04-25 09:04 | -34.01557 | 151.87590 | 11875 ft | 291 kts | 276° |
| 2026-04-25 09:04 | -34.01311 | 151.85189 | 11432 ft | 293 kts | 276° |
| 2026-04-25 09:05 | -34.01060 | 151.82750 | 11020 ft | 293 kts | 276° |
| 2026-04-25 09:05 | -34.00809 | 151.80308 | 10611 ft | 292 kts | 276° |
| 2026-04-25 09:05 | -34.00563 | 151.77890 | 10180 ft | 290 kts | 274° |
| 2026-04-25 09:05 | -34.00759 | 151.75522 | 9667 ft | 283 kts | 248° |
| 2026-04-25 09:06 | -34.01510 | 151.73336 | 9171 ft | 282 kts | 246° |
| 2026-04-25 09:06 | -34.02258 | 151.71181 | 8833 ft | 278 kts | 246° |
| 2026-04-25 09:06 | -34.02978 | 151.69037 | 8491 ft | 274 kts | 247° |
| 2026-04-25 09:06 | -34.03682 | 151.66896 | 8072 ft | 275 kts | 248° |
| 2026-04-25 09:07 | -34.04377 | 151.64746 | 7708 ft | 272 kts | 248° |
| 2026-04-25 09:07 | -34.05043 | 151.62658 | 7371 ft | 260 kts | 248° |
| 2026-04-25 09:07 | -34.05673 | 151.60667 | 7097 ft | 255 kts | 248° |
| 2026-04-25 09:07 | -34.06298 | 151.58685 | 6765 ft | 251 kts | 248° |
| 2026-04-25 09:08 | -34.06917 | 151.56714 | 6322 ft | 251 kts | 249° |
| 2026-04-25 09:08 | -34.07529 | 151.54762 | 5925 ft | 249 kts | 249° |
| 2026-04-25 09:08 | -34.08130 | 151.52837 | 5472 ft | 241 kts | 250° |
| 2026-04-25 09:08 | -34.08710 | 151.50980 | 5016 ft | 232 kts | 250° |
| 2026-04-25 09:09 | -34.09265 | 151.49196 | 4509 ft | 223 kts | 251° |
| 2026-04-25 09:09 | -34.09804 | 151.47465 | 3915 ft | 220 kts | 251° |
| 2026-04-25 09:09 | -34.10343 | 151.45727 | 3425 ft | 220 kts | 251° |
| 2026-04-25 09:09 | -34.10876 | 151.44016 | 3023 ft | 217 kts | 251° |
| 2026-04-25 09:10 | -34.11383 | 151.42382 | 3024 ft | 211 kts | 252° |
| 2026-04-25 09:10 | -34.11911 | 151.40672 | 3041 ft | 220 kts | 251° |
| 2026-04-25 09:10 | -34.12455 | 151.38914 | 3029 ft | 224 kts | 251° |
| 2026-04-25 09:10 | -34.12997 | 151.37168 | 3026 ft | 219 kts | 251° |
| 2026-04-25 09:11 | -34.14047 | 151.33780 | 3018 ft | 216 kts | 251° |
| 2026-04-25 09:11 | -34.14583 | 151.32049 | 3032 ft | 221 kts | 251° |
| 2026-04-25 09:11 | -34.15115 | 151.30322 | 3024 ft | 218 kts | 252° |
| 2026-04-25 09:12 | -34.15636 | 151.28638 | 3026 ft | 215 kts | 251° |
| 2026-04-25 09:12 | -34.16111 | 151.26943 | 2998 ft | 208 kts | 264° |
| 2026-04-25 09:12 | -34.15958 | 151.25248 | 3040 ft | 205 kts | 295° |
| 2026-04-25 09:12 | -34.15132 | 151.23874 | 3024 ft | 203 kts | 327° |
| 2026-04-25 09:13 | -34.13869 | 151.23155 | 3046 ft | 201 kts | 341° |
| 2026-04-25 09:13 | -34.12547 | 151.22574 | 3033 ft | 202 kts | 342° |
| 2026-04-25 09:13 | -34.11213 | 151.22049 | 2965 ft | 207 kts | 347° |
| 2026-04-25 09:13 | -34.09800 | 151.21627 | 2679 ft | 209 kts | 349° |
| 2026-04-25 09:14 | -34.08405 | 151.21256 | 2406 ft | 200 kts | 350° |
| 2026-04-25 09:14 | -34.07080 | 151.20906 | 2146 ft | 189 kts | 350° |
| 2026-04-25 09:14 | -34.05818 | 151.20571 | 1884 ft | 184 kts | 351° |
| 2026-04-25 09:14 | -34.04599 | 151.20248 | 1671 ft | 173 kts | 351° |
| 2026-04-25 09:15 | -34.03470 | 151.19948 | 1444 ft | 158 kts | 351° |
| 2026-04-25 09:15 | -34.02428 | 151.19672 | 1243 ft | 156 kts | 353° |
| 2026-04-25 09:15 | -34.01354 | 151.19390 | 1018 ft | 157 kts | 351° |
| 2026-04-25 09:15 | -34.00302 | 151.19110 | 828 ft | 153 kts | 352° |
| 2026-04-25 09:16 | -33.99261 | 151.18834 | 625 ft | 152 kts | 352° |
| 2026-04-25 09:16 | -33.98244 | 151.18563 | 428 ft | 154 kts | 350° |
| 2026-04-25 09:16 | -33.97187 | 151.18276 | 224 ft | 156 kts | 351° |
| 2026-04-25 09:16 | -33.96139 | 151.17977 | 69 ft | 152 kts | 351° |
| 2026-04-25 09:17 | -33.94552 | 151.17580 | 29 ft | 69 kts | 348° |
| 2026-04-25 09:17 | -33.94056 | 151.17451 | 25 ft | 78 kts | 346° |
| 2026-04-25 09:17 | -33.93573 | 151.17327 | 21 ft | 52 kts | 351° |
| 2026-04-25 09:18 | -33.93486 | 151.17385 | 21 ft | 0 kts | 76° |
| 2026-04-25 09:19 | -33.93481 | 151.17415 | 22 ft | 14 kts | 77° |
| 2026-04-25 09:19 | -33.93373 | 151.17500 | 29 ft | 23 kts | 353° |
| 2026-04-25 09:19 | -33.93181 | 151.17458 | 29 ft | 19 kts | 343° |
| 2026-04-25 09:20 | -33.93148 | 151.17446 | 26 ft | 7 kts | 344° |
| 2026-04-25 09:20 | -33.93048 | 151.17416 | 28 ft | 23 kts | 348° |
| 2026-04-25 09:20 | -33.92961 | 151.17317 | 30 ft | 16 kts | 290° |
| 2026-04-25 09:20 | -33.92945 | 151.17176 | 25 ft | 18 kts | 265° |
| 2026-04-25 09:21 | -33.92958 | 151.17067 | 28 ft | 18 kts | 260° |
| 2026-04-25 09:21 | -33.92977 | 151.16966 | 27 ft | 12 kts | 257° |
| 2026-04-25 09:21 | -33.92973 | 151.16869 | 29 ft | 13 kts | 285° |
| 2026-04-25 09:21 | -33.92980 | 151.16768 | 25 ft | 13 kts | 257° |
| 2026-04-25 09:22 | -33.92981 | 151.16763 | 25 ft | 0 kts | 257° |